sensor_id;sensor_type;location;lat;lon;timestamp;P1;durP1;ratioP1;P2;durP2;ratioP2
29414;SDS011;20303;48.302;11.914;2023-08-12T00:05:40;1.80;;;1.70;;
29414;SDS011;20303;48.302;11.914;2023-08-12T00:15:43;1.83;;;1.73;;
29414;SDS011;20303;48.302;11.914;2023-08-12T00:25:44;1.63;;;1.52;;
29414;SDS011;20303;48.302;11.914;2023-08-12T00:35:45;1.90;;;1.80;;
29414;SDS011;20303;48.302;11.914;2023-08-12T00:45:46;1.92;;;1.80;;
29414;SDS011;20303;48.302;11.914;2023-08-12T00:55:48;2.08;;;1.88;;
29414;SDS011;20303;48.302;11.914;2023-08-12T01:05:49;2.05;;;1.90;;
29414;SDS011;20303;48.302;11.914;2023-08-12T01:15:50;2.17;;;2.00;;
29414;SDS011;20303;48.302;11.914;2023-08-12T01:25:54;2.17;;;1.98;;
29414;SDS011;20303;48.302;11.914;2023-08-12T01:35:58;2.30;;;2.10;;
29414;SDS011;20303;48.302;11.914;2023-08-12T01:46:05;2.43;;;2.17;;
29414;SDS011;20303;48.302;11.914;2023-08-12T01:56:06;2.25;;;2.05;;
29414;SDS011;20303;48.302;11.914;2023-08-12T02:06:07;2.03;;;1.90;;
29414;SDS011;20303;48.302;11.914;2023-08-12T02:16:08;2.40;;;2.20;;
29414;SDS011;20303;48.302;11.914;2023-08-12T02:26:09;2.30;;;2.10;;
29414;SDS011;20303;48.302;11.914;2023-08-12T02:36:10;2.33;;;2.13;;
29414;SDS011;20303;48.302;11.914;2023-08-12T02:46:11;2.40;;;2.20;;
29414;SDS011;20303;48.302;11.914;2023-08-12T02:56:15;2.28;;;2.08;;
29414;SDS011;20303;48.302;11.914;2023-08-12T03:06:16;2.42;;;2.22;;
29414;SDS011;20303;48.302;11.914;2023-08-12T03:16:17;2.60;;;2.10;;
29414;SDS011;20303;48.302;11.914;2023-08-12T03:26:18;2.25;;;2.05;;
29414;SDS011;20303;48.302;11.914;2023-08-12T03:36:19;2.20;;;2.03;;
29414;SDS011;20303;48.302;11.914;2023-08-12T03:46:20;2.90;;;2.60;;
29414;SDS011;20303;48.302;11.914;2023-08-12T03:56:21;2.60;;;2.38;;
29414;SDS011;20303;48.302;11.914;2023-08-12T04:06:22;2.72;;;2.53;;
29414;SDS011;20303;48.302;11.914;2023-08-12T04:16:23;2.60;;;2.40;;
29414;SDS011;20303;48.302;11.914;2023-08-12T04:26:24;2.72;;;2.30;;
29414;SDS011;20303;48.302;11.914;2023-08-12T04:36:25;2.50;;;2.30;;
29414;SDS011;20303;48.302;11.914;2023-08-12T04:46:27;2.65;;;2.30;;
29414;SDS011;20303;48.302;11.914;2023-08-12T04:56:28;2.60;;;2.40;;
29414;SDS011;20303;48.302;11.914;2023-08-12T05:06:29;2.50;;;2.30;;
29414;SDS011;20303;48.302;11.914;2023-08-12T05:16:30;2.97;;;2.67;;
29414;SDS011;20303;48.302;11.914;2023-08-12T05:26:32;2.50;;;2.30;;
29414;SDS011;20303;48.302;11.914;2023-08-12T05:36:33;2.60;;;2.40;;
29414;SDS011;20303;48.302;11.914;2023-08-12T05:46:35;2.58;;;2.38;;
29414;SDS011;20303;48.302;11.914;2023-08-12T05:56:36;3.22;;;2.40;;
29414;SDS011;20303;48.302;11.914;2023-08-12T06:06:37;2.50;;;2.30;;
29414;SDS011;20303;48.302;11.914;2023-08-12T06:16:38;2.70;;;2.50;;
29414;SDS011;20303;48.302;11.914;2023-08-12T06:26:39;2.55;;;2.35;;
29414;SDS011;20303;48.302;11.914;2023-08-12T06:36:40;2.53;;;2.33;;
29414;SDS011;20303;48.302;11.914;2023-08-12T06:46:41;2.67;;;2.47;;
29414;SDS011;20303;48.302;11.914;2023-08-12T06:56:42;2.80;;;2.58;;
29414;SDS011;20303;48.302;11.914;2023-08-12T07:06:43;2.50;;;2.30;;
29414;SDS011;20303;48.302;11.914;2023-08-12T07:16:44;2.90;;;2.22;;
29414;SDS011;20303;48.302;11.914;2023-08-12T07:26:45;2.72;;;2.53;;
29414;SDS011;20303;48.302;11.914;2023-08-12T07:36:46;2.63;;;2.40;;
29414;SDS011;20303;48.302;11.914;2023-08-12T07:46:47;2.60;;;2.40;;
29414;SDS011;20303;48.302;11.914;2023-08-12T07:56:49;2.38;;;2.17;;
29414;SDS011;20303;48.302;11.914;2023-08-12T08:06:50;2.33;;;2.13;;
29414;SDS011;20303;48.302;11.914;2023-08-12T08:16:51;2.40;;;2.20;;
29414;SDS011;20303;48.302;11.914;2023-08-12T08:26:52;2.30;;;2.10;;
29414;SDS011;20303;48.302;11.914;2023-08-12T08:36:53;2.33;;;2.13;;
29414;SDS011;20303;48.302;11.914;2023-08-12T08:46:54;2.35;;;2.15;;
29414;SDS011;20303;48.302;11.914;2023-08-12T08:56:55;2.30;;;2.10;;
29414;SDS011;20303;48.302;11.914;2023-08-12T09:06:57;2.20;;;2.00;;
29414;SDS011;20303;48.302;11.914;2023-08-12T09:16:59;2.00;;;1.90;;
29414;SDS011;20303;48.302;11.914;2023-08-12T09:27:00;1.90;;;1.80;;
29414;SDS011;20303;48.302;11.914;2023-08-12T09:37:01;1.80;;;1.70;;
29414;SDS011;20303;48.302;11.914;2023-08-12T09:47:03;2.28;;;1.90;;
29414;SDS011;20303;48.302;11.914;2023-08-12T09:57:05;1.70;;;1.60;;
29414;SDS011;20303;48.302;11.914;2023-08-12T10:07:09;1.90;;;1.70;;
29414;SDS011;20303;48.302;11.914;2023-08-12T10:17:10;1.90;;;1.80;;
29414;SDS011;20303;48.302;11.914;2023-08-12T10:27:11;1.70;;;1.60;;
29414;SDS011;20303;48.302;11.914;2023-08-12T10:37:13;1.70;;;1.60;;
29414;SDS011;20303;48.302;11.914;2023-08-12T10:47:15;1.73;;;1.63;;
29414;SDS011;20303;48.302;11.914;2023-08-12T10:57:16;1.65;;;1.55;;
29414;SDS011;20303;48.302;11.914;2023-08-12T11:07:21;1.70;;;1.60;;
29414;SDS011;20303;48.302;11.914;2023-08-12T11:17:29;1.80;;;1.70;;
29414;SDS011;20303;48.302;11.914;2023-08-12T11:27:38;1.83;;;1.73;;
29414;SDS011;20303;48.302;11.914;2023-08-12T11:37:42;1.75;;;1.65;;
29414;SDS011;20303;48.302;11.914;2023-08-12T11:47:47;1.80;;;1.70;;
29414;SDS011;20303;48.302;11.914;2023-08-12T11:57:52;1.70;;;1.60;;
29414;SDS011;20303;48.302;11.914;2023-08-12T12:07:53;1.63;;;1.52;;
29414;SDS011;20303;48.302;11.914;2023-08-12T12:17:54;1.75;;;1.65;;
29414;SDS011;20303;48.302;11.914;2023-08-12T12:27:55;1.95;;;1.80;;
29414;SDS011;20303;48.302;11.914;2023-08-12T12:37:56;1.80;;;1.70;;
29414;SDS011;20303;48.302;11.914;2023-08-12T12:47:57;1.63;;;1.52;;
29414;SDS011;20303;48.302;11.914;2023-08-12T12:57:58;1.80;;;1.70;;
29414;SDS011;20303;48.302;11.914;2023-08-12T13:07:59;1.70;;;1.60;;
29414;SDS011;20303;48.302;11.914;2023-08-12T13:18:01;1.60;;;1.50;;
29414;SDS011;20303;48.302;11.914;2023-08-12T13:28:03;1.77;;;1.67;;
29414;SDS011;20303;48.302;11.914;2023-08-12T13:38:04;1.50;;;1.40;;
29414;SDS011;20303;48.302;11.914;2023-08-12T13:48:05;1.60;;;1.50;;
29414;SDS011;20303;48.302;11.914;2023-08-12T13:58:06;1.60;;;1.50;;
29414;SDS011;20303;48.302;11.914;2023-08-12T14:08:07;1.60;;;1.50;;
29414;SDS011;20303;48.302;11.914;2023-08-12T14:18:08;1.60;;;1.50;;
29414;SDS011;20303;48.302;11.914;2023-08-12T14:28:09;1.50;;;1.40;;
29414;SDS011;20303;48.302;11.914;2023-08-12T14:38:10;1.50;;;1.40;;
29414;SDS011;20303;48.302;11.914;2023-08-12T14:48:12;2.22;;;1.35;;
29414;SDS011;20303;48.302;11.914;2023-08-12T14:58:15;1.30;;;1.20;;
29414;SDS011;20303;48.302;11.914;2023-08-12T15:08:16;1.40;;;1.30;;
29414;SDS011;20303;48.302;11.914;2023-08-12T15:18:17;1.40;;;1.30;;
29414;SDS011;20303;48.302;11.914;2023-08-12T15:28:18;1.30;;;1.20;;
29414;SDS011;20303;48.302;11.914;2023-08-12T15:38:19;1.30;;;1.20;;
29414;SDS011;20303;48.302;11.914;2023-08-12T15:48:20;1.50;;;1.40;;
29414;SDS011;20303;48.302;11.914;2023-08-12T15:58:21;1.30;;;1.20;;
29414;SDS011;20303;48.302;11.914;2023-08-12T16:08:24;1.30;;;1.20;;
29414;SDS011;20303;48.302;11.914;2023-08-12T16:18:25;1.13;;;1.02;;
29414;SDS011;20303;48.302;11.914;2023-08-12T16:28:26;1.00;;;1.00;;
29414;SDS011;20303;48.302;11.914;2023-08-12T16:38:27;1.40;;;1.20;;
29414;SDS011;20303;48.302;11.914;2023-08-12T16:48:28;1.63;;;1.15;;
29414;SDS011;20303;48.302;11.914;2023-08-12T16:58:30;1.30;;;1.20;;
29414;SDS011;20303;48.302;11.914;2023-08-12T17:08:32;1.13;;;1.02;;
29414;SDS011;20303;48.302;11.914;2023-08-12T17:18:33;1.10;;;1.00;;
29414;SDS011;20303;48.302;11.914;2023-08-12T17:28:34;1.50;;;1.40;;
29414;SDS011;20303;48.302;11.914;2023-08-12T17:38:35;1.35;;;1.25;;
29414;SDS011;20303;48.302;11.914;2023-08-12T17:48:36;1.40;;;1.30;;
29414;SDS011;20303;48.302;11.914;2023-08-12T17:58:37;1.20;;;1.10;;
29414;SDS011;20303;48.302;11.914;2023-08-12T18:08:39;1.30;;;1.20;;
29414;SDS011;20303;48.302;11.914;2023-08-12T18:18:40;1.33;;;1.23;;
29414;SDS011;20303;48.302;11.914;2023-08-12T18:28:41;1.20;;;1.10;;
29414;SDS011;20303;48.302;11.914;2023-08-12T18:38:42;1.30;;;1.20;;
29414;SDS011;20303;48.302;11.914;2023-08-12T18:48:45;1.30;;;1.20;;
29414;SDS011;20303;48.302;11.914;2023-08-12T18:58:46;1.20;;;1.10;;
29414;SDS011;20303;48.302;11.914;2023-08-12T19:08:47;1.40;;;1.30;;
29414;SDS011;20303;48.302;11.914;2023-08-12T19:18:48;1.20;;;1.10;;
29414;SDS011;20303;48.302;11.914;2023-08-12T19:28:49;1.20;;;1.10;;
29414;SDS011;20303;48.302;11.914;2023-08-12T19:38:51;1.33;;;1.23;;
29414;SDS011;20303;48.302;11.914;2023-08-12T19:48:52;1.38;;;1.27;;
29414;SDS011;20303;48.302;11.914;2023-08-12T19:58:53;1.40;;;1.30;;
29414;SDS011;20303;48.302;11.914;2023-08-12T20:08:54;1.42;;;1.30;;
29414;SDS011;20303;48.302;11.914;2023-08-12T20:18:55;1.60;;;1.23;;
29414;SDS011;20303;48.302;11.914;2023-08-12T20:28:56;1.40;;;1.30;;
29414;SDS011;20303;48.302;11.914;2023-08-12T20:38:57;1.65;;;1.55;;
29414;SDS011;20303;48.302;11.914;2023-08-12T20:48:58;1.40;;;1.30;;
29414;SDS011;20303;48.302;11.914;2023-08-12T20:58:59;1.60;;;1.50;;
29414;SDS011;20303;48.302;11.914;2023-08-12T21:09:00;1.50;;;1.40;;
29414;SDS011;20303;48.302;11.914;2023-08-12T21:19:02;1.60;;;1.50;;
29414;SDS011;20303;48.302;11.914;2023-08-12T21:29:03;1.50;;;1.40;;
29414;SDS011;20303;48.302;11.914;2023-08-12T21:39:04;1.52;;;1.42;;
29414;SDS011;20303;48.302;11.914;2023-08-12T21:49:05;1.67;;;1.58;;
29414;SDS011;20303;48.302;11.914;2023-08-12T21:59:06;1.80;;;1.70;;
29414;SDS011;20303;48.302;11.914;2023-08-12T22:09:07;1.88;;;1.77;;
29414;SDS011;20303;48.302;11.914;2023-08-12T22:19:08;1.70;;;1.60;;
29414;SDS011;20303;48.302;11.914;2023-08-12T22:29:09;1.90;;;1.80;;
29414;SDS011;20303;48.302;11.914;2023-08-12T22:39:10;2.05;;;1.90;;
29414;SDS011;20303;48.302;11.914;2023-08-12T22:49:11;2.45;;;1.98;;
29414;SDS011;20303;48.302;11.914;2023-08-12T22:59:12;2.20;;;2.00;;
29414;SDS011;20303;48.302;11.914;2023-08-12T23:09:13;2.15;;;1.95;;
29414;SDS011;20303;48.302;11.914;2023-08-12T23:19:15;2.17;;;1.98;;
29414;SDS011;20303;48.302;11.914;2023-08-12T23:29:16;2.53;;;2.08;;
29414;SDS011;20303;48.302;11.914;2023-08-12T23:39:17;2.33;;;2.00;;
29414;SDS011;20303;48.302;11.914;2023-08-12T23:49:18;2.40;;;2.20;;
29414;SDS011;20303;48.302;11.914;2023-08-12T23:59:19;2.30;;;2.10;;
